Friday, February 23, 2018, 2:12 PM CST
Back to Local

KOMA, Omaha Eppley Airfield

Location: Omaha, NE, United States Lat: 41.3
Local Time: 2:12 PM CST (20:12 GMT) Lon: -95.9
Time Zone: US/Central Elev: 984 ft

Show me the last for .
Show Coded

Time T Td Feel RH Dir Speed Gust Alt SLP Vis Weather Sky Remarks
2018-02-23 13:52 28 22 18 77 360° 12 - 30.30 30.34 7 SCT013 None
2018-02-23 12:52 27 22 16 80 360° 13 - 30.33 30.36 7 BKN014 None
2018-02-23 12:18 28 22 19 77 360° 10 - 30.34 - 7 BKN014 None
2018-02-23 12:03 28 23 19 81 360° 9 - 30.33 - 7 BKN015 None
2018-02-23 11:52 29 23 22 78 360° 7 - 30.34 30.37 7 SCT015 Snow depth: 1"
6-hr Min Temp (12pm): 24.1°F
6-hr Max Temp (12pm): 28.9°F
2018-02-23 10:52 27 21 19 77 10° 8 - 30.33 30.36 7 FEW012 None
2018-02-23 09:52 26 21 17 80 360° 9 - 30.29 30.33 6 HZ FEW010 FEW250 None
2018-02-23 08:52 24 20 17 83 350° 6 - 30.26 30.30 5 BR SCT250 None
2018-02-23 07:52 24 21 13 87 300° 12 - 30.24 30.27 6 BR FEW250 None
2018-02-23 06:52 24 21 13 87 300° 12 - 30.22 30.25 5 BR FEW033 None
2018-02-23 05:52 25 22 14 87 290° 12 - 30.21 30.24 6 BR FEW033 24-hr Precip Total (6am): 0.24"
Snow depth: 1"
6-hr Min Temp (6am): 25.0°F
6-hr Max Temp (6am): 32.0°F
2018-02-23 04:52 27 24 17 88 280° 10 - 30.19 30.22 5 BR FEW033 None
2018-02-23 03:52 29 25 20 84 290° 9 - 30.19 30.22 8 OVC033 None
2018-02-23 02:52 30 26 21 84 270° 10 - 30.18 30.21 10 OVC032 None
2018-02-23 02:17 30 26 24 84 290° 6 - 30.18 - 10 SCT020 OVC032 None
2018-02-23 02:03 30 26 22 84 290° 8 - 30.18 - 10 BKN020 BKN025 OVC032 None
2018-02-23 01:52 30 27 24 88 300° 6 - 30.18 30.21 9 BKN014 BKN020 OVC032 None
2018-02-23 01:47 30 27 25 86 310° 5 - 30.17 - 9 BKN014 BKN020 OVC032 None
2018-02-23 01:18 31 28 21 88 300° 13 - 30.17 - 8 OVC009 None
2018-02-23 00:52 32 29 26 88 260° 7 - 30.18 30.21 10 OVC013 None
2018-02-23 00:28 32 29 27 88 260° 5 - 30.17 - 10 BKN016 OVC039 None
2018-02-22 23:52 31 30 26 96 260° 5 - 30.17 30.20 3 BR BKN006 OVC040 1-hr Precip Total: 0.03"
6-hr Precip Total (12am): 0.20"
Snow depth: 1"
6-hr Min Temp (12am): 30.9°F
6-hr Max Temp (12am): 32.0°F
24-hr Min Temp (12am): 21.9°F
24-hr Max Temp (12am): 32.0°F
2018-02-22 23:43 31 30 - 96 - Calm - 30.15 - 3 BR BKN006 OVC040 1-hr Precip Total: 0.03"
2018-02-22 23:36 31 30 - 96 - Calm - 30.15 - 2 -FZDZPL BR BKN006 OVC040 1-hr Precip Total: 0.03"
2018-02-22 22:52 32 30 27 92 270° 5 - 30.17 30.20 2 -FZDZPL BR SCT006 BKN010 OVC027 1-hr Precip Total: 0.04"
2018-02-22 22:23 32 30 29 92 270° 3 - 30.18 - 2 -FZDZ BR FEW006 BKN010 OVC027 1-hr Precip Total: 0.02"
2018-02-22 21:55 32 30 27 92 220° 5 - 30.18 - 2 PL BR FEW006 BKN009 OVC023 1-hr Precip Total: Trace
2018-02-22 21:52 31 30 26 96 200° 5 - 30.19 30.22 2 -FZDZ BR FEW006 BKN009 OVC014 1-hr Precip Total: 0.06"
2018-02-22 21:18 32 30 - 92 - Calm - 30.19 - 2 -FZDZ BR FEW006 BKN009 OVC014 1-hr Precip Total: 0.01"
2018-02-22 20:52 32 30 29 92 210° 3 - 30.19 30.23 4 -FZDZ BR FEW006 BKN009 OVC037 1-hr Precip Total: 0.02"
6-hr Precip Total (9pm): 0.07"
2018-02-22 19:52 32 30 27 92 220° 5 - 30.21 30.24 3 -FZDZ BR BKN007 OVC017 1-hr Precip Total: 0.05"
2018-02-22 19:12 31 29 23 92 230° 8 - 30.22 - 5 -FZDZ BR OVC007 Pressure rising rapidly
1-hr Precip Total: Trace
2018-02-22 18:52 31 28 - 88 - Calm - 30.19 30.22 6 BR OVC007 None
2018-02-22 17:52 31 28 26 88 130° 5 - 30.18 30.21 7 OVC008 1-hr Precip Total: Trace
6-hr Precip Total (6pm): 0.00"
Snow depth: 1"
6-hr Min Temp (6pm): 27.0°F
6-hr Max Temp (6pm): 30.9°F
2018-02-22 17:37 31 28 26 88 130° 5 - 30.19 - 10 OVC008 1-hr Precip Total: Trace
2018-02-22 16:52 30 28 21 92 140° 12 - 30.20 30.24 7 -FZDZ OVC008 1-hr Precip Total: Trace
2018-02-22 15:52 30 27 22 88 120° 9 - 30.22 30.26 7 OVC008 None
2018-02-22 14:52 29 26 22 88 140° 7 - 30.27 30.31 6 BR OVC007 1-hr Precip Total: Trace
6-hr Precip Total (3pm): 0.00"
2018-02-22 14:47 28 27 21 92 140° 7 - 30.27 - 4 BR OVC007 1-hr Precip Total: Trace
2018-02-22 14:37 29 27 22 92 140° 7 - 30.28 - 3 -FZDZ OVC008 1-hr Precip Total: Trace
2018-02-22 14:19 29 26 21 88 120° 8 - 30.29 - 2 -FZDZ OVC008 Pressure falling rapidly
1-hr Precip Total: Trace

Support USWX by starting your Amazon purchase here.